createdAt,value
2019-02-22T00:00:08.132Z,1019.08
2019-02-22T00:01:08.120Z,1019.15
2019-02-22T00:02:08.098Z,1019.14
2019-02-22T00:03:08.088Z,1019.12
2019-02-22T00:04:08.076Z,1019.18
2019-02-22T00:05:08.106Z,1019.20
2019-02-22T00:06:08.066Z,1019.23
2019-02-22T00:07:08.051Z,1019.24
2019-02-22T00:08:08.125Z,1019.29
2019-02-22T00:09:08.074Z,1019.25
2019-02-22T00:10:08.069Z,1019.26
2019-02-22T00:11:08.031Z,1019.35
2019-02-22T00:12:08.004Z,1019.34
2019-02-22T00:13:07.988Z,1019.37
2019-02-22T00:14:07.985Z,1019.40
2019-02-22T00:15:07.956Z,1019.41
2019-02-22T00:16:07.948Z,1019.40
2019-02-22T00:17:07.977Z,1019.41
2019-02-22T00:18:07.929Z,1019.40
2019-02-22T00:19:07.918Z,1019.43
2019-02-22T00:20:07.919Z,1019.45
2019-02-22T00:21:07.900Z,1019.51
2019-02-22T00:22:07.928Z,1019.55
2019-02-22T00:23:07.877Z,1019.54
2019-02-22T00:24:07.861Z,1019.51
2019-02-22T00:25:07.855Z,1019.55
2019-02-22T00:26:07.845Z,1019.58
2019-02-22T00:27:07.836Z,1019.53
2019-02-22T00:28:07.867Z,1019.59
2019-02-22T00:29:07.817Z,1019.64
2019-02-22T00:30:07.805Z,1019.60
2019-02-22T00:31:07.792Z,1019.64
2019-02-22T00:32:07.787Z,1019.69
2019-02-22T00:33:07.797Z,1019.72
2019-02-22T00:34:07.761Z,1019.72
2019-02-22T00:35:07.747Z,1019.71
2019-02-22T00:36:07.754Z,1019.68
2019-02-22T00:37:07.771Z,1019.72
2019-02-22T00:38:07.768Z,1019.74
2019-02-22T00:39:07.725Z,1019.75
2019-02-22T00:40:07.702Z,1019.83
2019-02-22T00:41:07.863Z,1019.84
2019-02-22T00:42:07.730Z,1019.82
2019-02-22T00:43:07.703Z,1019.81
2019-02-22T00:44:07.666Z,1019.80
2019-02-22T00:45:07.646Z,1019.84
2019-02-22T00:46:07.633Z,1019.86
2019-02-22T00:47:07.621Z,1019.90
2019-02-22T00:48:07.608Z,1019.93
2019-02-22T00:49:07.625Z,1019.88
2019-02-22T00:50:07.605Z,1019.84
2019-02-22T00:51:07.580Z,1019.88
2019-02-22T00:52:07.567Z,1019.91
2019-02-22T00:53:07.602Z,1019.94
2019-02-22T00:54:07.547Z,1019.94
2019-02-22T00:55:07.573Z,1019.95
2019-02-22T00:56:07.561Z,1019.94
2019-02-22T00:57:07.539Z,1019.99
2019-02-22T00:58:07.591Z,1019.97
2019-02-22T00:59:07.542Z,1020.01
2019-02-22T01:00:07.526Z,1020.00
2019-02-22T01:01:07.526Z,1020.03
2019-02-22T01:02:07.484Z,1020.07
2019-02-22T01:03:07.495Z,1020.04
2019-02-22T01:04:07.547Z,1020.04
2019-02-22T01:05:07.480Z,1020.05
2019-02-22T01:06:07.434Z,1020.08
2019-02-22T01:07:07.451Z,1020.07
2019-02-22T01:08:07.439Z,1020.06
2019-02-22T01:09:07.468Z,1020.09
2019-02-22T01:10:07.411Z,1020.10
2019-02-22T01:11:07.438Z,1020.12
2019-02-22T01:12:07.395Z,1020.21
2019-02-22T01:13:07.375Z,1020.25
2019-02-22T01:14:07.376Z,1020.27
2019-02-22T01:15:07.390Z,1020.20
2019-02-22T01:16:07.407Z,1020.27
2019-02-22T01:17:07.353Z,1020.30
2019-02-22T01:18:07.320Z,1020.35
2019-02-22T01:19:07.320Z,1020.41
2019-02-22T01:20:07.303Z,1020.41
2019-02-22T01:21:07.287Z,1020.42
2019-02-22T01:22:07.279Z,1020.45
2019-02-22T01:23:07.248Z,1020.46
2019-02-22T01:24:07.245Z,1020.49
2019-02-22T01:25:07.225Z,1020.49
2019-02-22T01:26:07.217Z,1020.50
2019-02-22T01:27:07.232Z,1020.53
2019-02-22T01:28:07.189Z,1020.55
2019-02-22T01:29:07.174Z,1020.58
2019-02-22T01:30:07.177Z,1020.61
2019-02-22T01:31:07.168Z,1020.62
2019-02-22T01:32:07.231Z,1020.67
2019-02-22T01:33:07.189Z,1020.64
2019-02-22T01:34:07.181Z,1020.67
2019-02-22T01:35:07.214Z,1020.70
2019-02-22T01:36:07.135Z,1020.78
2019-02-22T01:37:07.190Z,1020.78
2019-02-22T01:38:07.114Z,1020.82
2019-02-22T01:39:07.081Z,1020.83
2019-02-22T01:40:07.061Z,1020.82
2019-02-22T01:41:07.052Z,1020.84
2019-02-22T01:42:07.043Z,1020.86
2019-02-22T01:43:07.030Z,1020.81
2019-02-22T01:44:07.043Z,1020.85
2019-02-22T01:45:07.011Z,1020.82
2019-02-22T01:46:07.057Z,1020.86
2019-02-22T01:47:07.007Z,1020.83
2019-02-22T01:48:07.027Z,1020.88
2019-02-22T01:49:06.963Z,1020.85
2019-02-22T01:50:06.945Z,1020.89
2019-02-22T01:51:06.936Z,1020.89
2019-02-22T01:52:06.955Z,1020.88
2019-02-22T01:53:06.987Z,1020.92
2019-02-22T01:54:06.909Z,1020.95
2019-02-22T01:55:06.900Z,1020.94
2019-02-22T01:56:06.886Z,1020.97
2019-02-22T01:57:06.879Z,1020.99
2019-02-22T01:58:06.892Z,1021.04
2019-02-22T01:59:06.858Z,1021.07
2019-02-22T02:00:06.848Z,1021.08
2019-02-22T02:01:06.828Z,1021.06
2019-02-22T02:02:06.825Z,1021.12
2019-02-22T02:03:06.813Z,1021.11
2019-02-22T02:04:06.830Z,1021.12
2019-02-22T02:05:06.787Z,1021.12
2019-02-22T02:06:06.782Z,1021.13
2019-02-22T02:07:06.771Z,1021.15
2019-02-22T02:08:06.764Z,1021.13
2019-02-22T02:09:06.796Z,1021.17
2019-02-22T02:10:06.730Z,1021.20
2019-02-22T02:11:06.718Z,1021.18
2019-02-22T02:12:06.711Z,1021.17
2019-02-22T02:13:06.775Z,1021.20
2019-02-22T02:14:06.693Z,1021.22
2019-02-22T02:15:06.724Z,1021.26
2019-02-22T02:16:06.672Z,1021.30
2019-02-22T02:17:06.661Z,1021.34
2019-02-22T02:18:06.646Z,1021.30
2019-02-22T02:19:06.637Z,1021.29
2019-02-22T02:20:06.701Z,1021.32
2019-02-22T02:21:06.621Z,1021.33
2019-02-22T02:22:06.601Z,1021.37
2019-02-22T02:23:06.592Z,1021.37
2019-02-22T02:24:06.592Z,1021.37
2019-02-22T02:25:06.599Z,1021.35
2019-02-22T02:26:06.563Z,1021.46
2019-02-22T02:27:06.551Z,1021.48
2019-02-22T02:28:06.548Z,1021.43
2019-02-22T02:29:06.535Z,1021.48
2019-02-22T02:30:06.543Z,1021.53
2019-02-22T02:31:06.505Z,1021.54
2019-02-22T02:32:06.494Z,1021.54
2019-02-22T02:33:06.483Z,1021.54
2019-02-22T02:34:06.503Z,1021.54
2019-02-22T02:35:06.466Z,1021.54
2019-02-22T02:36:06.455Z,1021.57
2019-02-22T02:37:06.444Z,1021.64
2019-02-22T02:38:06.435Z,1021.63
2019-02-22T02:39:06.448Z,1021.64
2019-02-22T02:40:06.439Z,1021.67
2019-02-22T02:41:10.807Z,1021.66
2019-02-22T02:42:06.394Z,1021.72
2019-02-22T02:43:06.377Z,1021.73
2019-02-22T02:44:06.365Z,1021.73
2019-02-22T02:45:06.384Z,1021.74
2019-02-22T02:46:06.360Z,1021.75
2019-02-22T02:47:06.334Z,1021.77
2019-02-22T02:48:06.332Z,1021.74
2019-02-22T02:49:06.317Z,1021.80
2019-02-22T02:50:06.303Z,1021.82
2019-02-22T02:51:06.315Z,1021.82
2019-02-22T02:52:06.282Z,1021.82
2019-02-22T02:53:06.283Z,1021.86
2019-02-22T02:54:06.265Z,1021.86
2019-02-22T02:55:06.247Z,1021.91
2019-02-22T02:56:06.258Z,1021.94
2019-02-22T02:57:06.260Z,1021.95
2019-02-22T02:58:06.227Z,1021.96
2019-02-22T02:59:06.208Z,1021.99
2019-02-22T03:00:06.198Z,1021.99
2019-02-22T03:01:06.191Z,1022.03
2019-02-22T03:02:06.174Z,1022.07
2019-02-22T03:03:06.197Z,1022.08
2019-02-22T03:04:06.155Z,1022.07
2019-02-22T03:05:06.144Z,1022.07
2019-02-22T03:06:06.142Z,1022.09
2019-02-22T03:07:06.121Z,1022.10
2019-02-22T03:08:06.130Z,1022.09
2019-02-22T03:09:06.093Z,1022.08
2019-02-22T03:10:06.088Z,1022.07
2019-02-22T03:11:06.077Z,1022.12
2019-02-22T03:12:06.109Z,1022.18
2019-02-22T03:13:06.086Z,1022.12
2019-02-22T03:14:06.040Z,1022.13
2019-02-22T03:15:06.027Z,1022.17
2019-02-22T03:16:06.023Z,1022.16
2019-02-22T03:17:06.012Z,1022.18
2019-02-22T03:18:06.004Z,1022.19
2019-02-22T03:19:06.017Z,1022.17
2019-02-22T03:20:05.974Z,1022.22
2019-02-22T03:21:05.971Z,1022.26
2019-02-22T03:22:05.959Z,1022.24
2019-02-22T03:23:05.951Z,1022.32
2019-02-22T03:24:05.969Z,1022.27
2019-02-22T03:25:05.926Z,1022.28
2019-02-22T03:26:05.940Z,1022.31
2019-02-22T03:27:05.907Z,1022.29
2019-02-22T03:28:05.897Z,1022.25
2019-02-22T03:29:05.931Z,1022.28
2019-02-22T03:30:06.147Z,1022.28
2019-02-22T03:31:05.862Z,1022.31
2019-02-22T03:32:05.854Z,1022.30
2019-02-22T03:33:05.837Z,1022.33
2019-02-22T03:34:05.831Z,1022.35
2019-02-22T03:35:05.859Z,1022.41
2019-02-22T03:36:05.812Z,1022.38
2019-02-22T03:37:05.828Z,1022.44
2019-02-22T03:38:06.041Z,1022.44
2019-02-22T03:39:05.772Z,1022.48
2019-02-22T03:40:05.798Z,1022.47
2019-02-22T03:41:05.757Z,1022.50
2019-02-22T03:42:05.740Z,1022.55
2019-02-22T03:43:05.739Z,1022.58
2019-02-22T03:44:05.722Z,1022.59
2019-02-22T03:45:05.709Z,1022.60
2019-02-22T03:46:05.752Z,1022.61
2019-02-22T03:47:12.632Z,1022.63
2019-02-22T03:48:05.677Z,1022.65
2019-02-22T03:49:05.670Z,1022.70
2019-02-22T03:50:05.663Z,1022.74
2019-02-22T03:51:05.654Z,1022.73
2019-02-22T03:52:05.659Z,1022.71
2019-02-22T03:53:05.631Z,1022.71
2019-02-22T03:54:05.615Z,1022.73
2019-02-22T03:55:05.604Z,1022.81
2019-02-22T03:56:05.619Z,1022.86
2019-02-22T03:57:05.588Z,1022.90
2019-02-22T03:58:05.574Z,1022.92
2019-02-22T03:59:05.561Z,1022.98
2019-02-22T04:00:05.555Z,1022.97
2019-02-22T04:01:05.571Z,1023.00
2019-02-22T04:02:05.542Z,1023.06
2019-02-22T04:03:05.530Z,1023.12
2019-02-22T04:04:05.520Z,1023.07
2019-02-22T04:05:05.504Z,1023.10
2019-02-22T04:06:05.490Z,1023.16
2019-02-22T04:07:05.504Z,1023.16
2019-02-22T04:08:07.285Z,1023.20
2019-02-22T04:09:05.456Z,1023.19
2019-02-22T04:10:05.454Z,1023.19
2019-02-22T04:11:05.442Z,1023.23
2019-02-22T04:12:05.450Z,1023.29
2019-02-22T04:13:05.415Z,1023.27
2019-02-22T04:14:05.413Z,1023.28
2019-02-22T04:15:05.401Z,1023.30
2019-02-22T04:16:05.388Z,1023.31
2019-02-22T04:17:05.405Z,1023.34
2019-02-22T04:18:05.365Z,1023.39
2019-02-22T04:19:05.377Z,1023.42
2019-02-22T04:20:05.343Z,1023.38
2019-02-22T04:21:05.331Z,1023.41
2019-02-22T04:22:05.330Z,1023.46
2019-02-22T04:23:05.345Z,1023.46
2019-02-22T04:24:05.335Z,1023.52
2019-02-22T04:25:05.293Z,1023.53
2019-02-22T04:26:05.281Z,1023.56
2019-02-22T04:27:05.268Z,1023.63
2019-02-22T04:28:05.275Z,1023.65
2019-02-22T04:29:05.264Z,1023.72
2019-02-22T04:30:05.261Z,1023.73
2019-02-22T04:31:05.252Z,1023.76
2019-02-22T04:32:05.230Z,1023.78
2019-02-22T04:33:05.208Z,1023.81
2019-02-22T04:34:05.197Z,1023.91
2019-02-22T04:35:05.217Z,1023.90
2019-02-22T04:36:05.179Z,1023.92
2019-02-22T04:37:05.182Z,1024.02
2019-02-22T04:38:05.151Z,1024.06
2019-02-22T04:39:05.143Z,1024.05
2019-02-22T04:40:05.133Z,1024.08
2019-02-22T04:41:05.170Z,1024.13
2019-02-22T04:42:05.135Z,1024.19
2019-02-22T04:43:05.104Z,1024.19
2019-02-22T04:44:05.088Z,1024.15
2019-02-22T04:45:05.078Z,1024.22
2019-02-22T04:46:05.073Z,1024.29
2019-02-22T04:47:05.099Z,1024.35
2019-02-22T04:48:05.051Z,1024.39
2019-02-22T04:49:05.042Z,1024.39
2019-02-22T04:50:05.029Z,1024.43
2019-02-22T04:51:05.063Z,1024.43
2019-02-22T04:52:05.002Z,1024.44
2019-02-22T04:53:05.035Z,1024.51
2019-02-22T04:54:04.990Z,1024.46
2019-02-22T04:55:04.976Z,1024.54
2019-02-22T04:56:04.970Z,1024.57
2019-02-22T04:57:04.981Z,1024.55
2019-02-22T04:58:04.965Z,1024.60
2019-02-22T04:59:04.929Z,1024.64
2019-02-22T05:00:04.936Z,1024.70
2019-02-22T05:01:04.914Z,1024.67
2019-02-22T05:02:04.924Z,1024.75
2019-02-22T05:03:04.889Z,1024.80
2019-02-22T05:04:04.877Z,1024.80
2019-02-22T05:05:04.873Z,1024.90
2019-02-22T05:06:04.887Z,1024.92
2019-02-22T05:07:04.848Z,1024.94
2019-02-22T05:08:04.894Z,1025.05
2019-02-22T05:09:04.829Z,1025.08
2019-02-22T05:10:04.814Z,1025.11
2019-02-22T05:11:04.833Z,1025.09
2019-02-22T05:12:10.894Z,1025.17
2019-02-22T05:13:05.782Z,1025.21
2019-02-22T05:14:04.777Z,1025.31
2019-02-22T05:15:12.602Z,1025.28
2019-02-22T05:16:05.787Z,1025.27
2019-02-22T05:17:04.741Z,1025.37
2019-02-22T05:18:04.729Z,1025.35
2019-02-22T05:19:04.770Z,1025.44
2019-02-22T05:20:04.711Z,1025.37
2019-02-22T05:21:04.703Z,1025.50
2019-02-22T05:22:04.754Z,1025.45
2019-02-22T05:23:07.464Z,1025.50
2019-02-22T05:24:04.664Z,1025.54
2019-02-22T05:25:04.676Z,1025.55
2019-02-22T05:26:04.649Z,1025.53
2019-02-22T05:27:04.664Z,1025.59
2019-02-22T05:28:04.623Z,1025.62
2019-02-22T05:29:04.620Z,1025.61
2019-02-22T05:30:04.627Z,1025.68
2019-02-22T05:31:04.588Z,1025.73
2019-02-22T05:32:04.583Z,1025.76
2019-02-22T05:33:04.592Z,1025.73
2019-02-22T05:34:04.564Z,1025.81
2019-02-22T05:35:04.542Z,1025.82
2019-02-22T05:36:04.575Z,1025.87
2019-02-22T05:37:04.521Z,1025.89
2019-02-22T05:38:04.522Z,1025.92
2019-02-22T05:39:04.507Z,1025.90
2019-02-22T05:40:04.500Z,1025.88
2019-02-22T05:41:04.539Z,1025.96
2019-02-22T05:42:04.476Z,1025.97
2019-02-22T05:43:04.467Z,1026.01
2019-02-22T05:44:04.454Z,1026.03
2019-02-22T05:45:04.444Z,1026.07
2019-02-22T05:46:04.437Z,1026.03
2019-02-22T05:47:04.451Z,1026.09
2019-02-22T05:48:04.403Z,1026.07
2019-02-22T05:49:04.401Z,1026.13
2019-02-22T05:50:04.399Z,1026.20
2019-02-22T05:51:04.377Z,1026.20
2019-02-22T05:52:04.429Z,1026.23
2019-02-22T05:53:04.358Z,1026.27
2019-02-22T05:54:04.347Z,1026.27
2019-02-22T05:55:04.330Z,1026.29
2019-02-22T05:56:04.345Z,1026.34
2019-02-22T05:57:04.342Z,1026.33
2019-02-22T05:58:04.303Z,1026.38
2019-02-22T05:59:04.309Z,1026.37
2019-02-22T06:00:04.291Z,1026.44
2019-02-22T06:01:06.719Z,1026.46
2019-02-22T06:02:04.300Z,1026.51
2019-02-22T06:03:04.308Z,1026.60
2019-02-22T06:04:04.245Z,1026.61
2019-02-22T06:05:04.228Z,1026.71
2019-02-22T06:06:04.218Z,1026.70
2019-02-22T06:07:04.201Z,1026.77
2019-02-22T06:08:04.229Z,1026.72
2019-02-22T06:09:04.178Z,1026.81
2019-02-22T06:10:04.176Z,1026.88
2019-02-22T06:11:04.166Z,1026.91
2019-02-22T06:12:04.155Z,1026.94
2019-02-22T06:13:04.168Z,1026.98
2019-02-22T06:14:04.126Z,1027.01
2019-02-22T06:15:04.121Z,1027.00
2019-02-22T06:16:04.106Z,1027.05
2019-02-22T06:17:14.148Z,1027.11
2019-02-22T06:18:05.120Z,1027.21
2019-02-22T06:19:04.115Z,1027.22
2019-02-22T06:20:04.093Z,1027.24
2019-02-22T06:21:04.059Z,1027.20
2019-02-22T06:22:04.050Z,1027.24
2019-02-22T06:23:04.036Z,1027.32
2019-02-22T06:24:04.095Z,1027.36
2019-02-22T06:25:04.020Z,1027.35
2019-02-22T06:26:04.000Z,1027.39
2019-02-22T06:27:03.989Z,1027.34
2019-02-22T06:28:03.976Z,1027.47
2019-02-22T06:29:03.969Z,1027.50
2019-02-22T06:30:04.006Z,1027.42
2019-02-22T06:31:03.950Z,1027.51
2019-02-22T06:32:03.969Z,1027.53
2019-02-22T06:33:03.943Z,1027.60
2019-02-22T06:34:03.914Z,1027.63
2019-02-22T06:35:03.923Z,1027.68
2019-02-22T06:36:03.900Z,1027.69
2019-02-22T06:37:03.891Z,1027.67
2019-02-22T06:38:03.871Z,1027.74
2019-02-22T06:39:03.872Z,1027.78
2019-02-22T06:40:03.874Z,1027.85
2019-02-22T06:41:03.868Z,1027.85
2019-02-22T06:42:03.841Z,1027.86
2019-02-22T06:43:03.821Z,1027.95
2019-02-22T06:44:03.812Z,1028.00
2019-02-22T06:45:03.837Z,1028.00
2019-02-22T06:46:03.787Z,1028.05
2019-02-22T06:47:03.773Z,1028.06
2019-02-22T06:48:03.766Z,1028.07
2019-02-22T06:49:03.781Z,1028.02
2019-02-22T06:50:03.768Z,1028.11
2019-02-22T06:51:03.758Z,1028.20
2019-02-22T06:52:03.732Z,1028.22
2019-02-22T06:53:03.710Z,1028.20
2019-02-22T06:54:03.736Z,1028.26
2019-02-22T06:55:03.700Z,1028.33
2019-02-22T06:56:03.749Z,1028.26
2019-02-22T06:57:03.712Z,1028.37
2019-02-22T06:58:03.658Z,1028.37
2019-02-22T06:59:03.654Z,1028.39
2019-02-22T07:00:03.637Z,1028.41
2019-02-22T07:01:03.646Z,1028.45
2019-02-22T07:02:03.629Z,1028.50
2019-02-22T07:03:03.638Z,1028.55
2019-02-22T07:04:03.598Z,1028.60
2019-02-22T07:05:03.594Z,1028.63
2019-02-22T07:06:05.580Z,1028.61
2019-02-22T07:07:03.559Z,1028.62
2019-02-22T07:08:03.604Z,1028.69
2019-02-22T07:09:03.549Z,1028.79
2019-02-22T07:10:03.545Z,1028.76
2019-02-22T07:11:03.542Z,1028.75
2019-02-22T07:12:03.523Z,1028.76
2019-02-22T07:13:03.538Z,1028.81
2019-02-22T07:14:03.572Z,1028.79
2019-02-22T07:15:03.505Z,1028.86
2019-02-22T07:16:03.495Z,1028.78
2019-02-22T07:17:03.529Z,1028.87
2019-02-22T07:18:03.464Z,1028.88
2019-02-22T07:19:03.452Z,1028.98
2019-02-22T07:20:03.462Z,1029.03
2019-02-22T07:21:03.427Z,1029.06
2019-02-22T07:22:03.407Z,1029.11
2019-02-22T07:23:03.423Z,1029.13
2019-02-22T07:24:03.391Z,1029.20
2019-02-22T07:25:03.369Z,1029.12
2019-02-22T07:26:03.369Z,1029.23
2019-02-22T07:27:03.390Z,1029.26
2019-02-22T07:28:03.381Z,1029.25
2019-02-22T07:29:03.339Z,1029.31
2019-02-22T07:30:03.315Z,1029.30
2019-02-22T07:31:03.305Z,1029.35
2019-02-22T07:32:06.218Z,1029.36
2019-02-22T07:33:03.333Z,1029.35
2019-02-22T07:34:03.284Z,1029.46
2019-02-22T07:35:03.273Z,1029.47
2019-02-22T07:36:03.258Z,1029.51
2019-02-22T07:37:03.255Z,1029.55
2019-02-22T07:38:03.232Z,1029.67
2019-02-22T07:39:03.254Z,1029.63
2019-02-22T07:40:03.254Z,1029.66
2019-02-22T07:41:03.204Z,1029.65
2019-02-22T07:42:03.193Z,1029.67
2019-02-22T07:43:07.897Z,1029.75
2019-02-22T07:44:04.169Z,1029.71
2019-02-22T07:45:03.280Z,1029.77
2019-02-22T07:46:03.153Z,1029.79
2019-02-22T07:47:03.143Z,1029.90
2019-02-22T07:48:03.132Z,1029.90
2019-02-22T07:49:03.123Z,1029.96
2019-02-22T07:50:03.107Z,1029.97
2019-02-22T07:51:03.120Z,1029.98
2019-02-22T07:52:03.152Z,1030.08
2019-02-22T07:53:03.072Z,1030.09
2019-02-22T07:54:03.065Z,1030.10
2019-02-22T07:55:03.060Z,1030.21
2019-02-22T07:56:03.083Z,1030.23
2019-02-22T07:57:03.031Z,1030.29
2019-02-22T07:58:03.043Z,1030.30
2019-02-22T07:59:03.217Z,1030.36
2019-02-22T08:00:03.009Z,1030.36
2019-02-22T08:01:02.993Z,1030.36
2019-02-22T08:02:03.003Z,1030.41
2019-02-22T08:03:02.969Z,1030.43
2019-02-22T08:04:02.964Z,1030.48
2019-02-22T08:05:02.951Z,1030.49
2019-02-22T08:06:02.953Z,1030.52
2019-02-22T08:07:02.968Z,1030.62
2019-02-22T08:08:03.024Z,1030.67
2019-02-22T08:09:02.907Z,1030.65
2019-02-22T08:10:02.893Z,1030.70
2019-02-22T08:11:02.881Z,1030.73
2019-02-22T08:12:02.880Z,1030.70
2019-02-22T08:13:02.929Z,1030.66
2019-02-22T08:14:02.851Z,1030.73
2019-02-22T08:15:02.839Z,1030.73
2019-02-22T08:16:02.829Z,1030.75
2019-02-22T08:17:02.816Z,1030.76
2019-02-22T08:18:02.833Z,1030.85
2019-02-22T08:19:02.812Z,1030.80
2019-02-22T08:20:02.795Z,1030.81
2019-02-22T08:21:02.784Z,1030.85
2019-02-22T08:22:03.646Z,1030.85
2019-02-22T08:23:02.791Z,1030.89
2019-02-22T08:24:02.747Z,1030.87
2019-02-22T08:25:02.735Z,1030.97
2019-02-22T08:26:02.735Z,1030.96
2019-02-22T08:27:02.713Z,1031.01
2019-02-22T08:28:02.701Z,1031.06
2019-02-22T08:29:02.712Z,1031.05
2019-02-22T08:30:02.685Z,1031.04
2019-02-22T08:31:02.676Z,1031.09
2019-02-22T08:32:02.661Z,1031.13
2019-02-22T08:33:02.649Z,1031.19
2019-02-22T08:34:02.673Z,1031.20
2019-02-22T08:35:02.624Z,1031.24
2019-02-22T08:36:02.615Z,1031.34
2019-02-22T08:37:02.603Z,1031.34
2019-02-22T08:38:02.597Z,1031.33
2019-02-22T08:39:02.583Z,1031.32
2019-02-22T08:40:02.742Z,1031.32
2019-02-22T08:41:02.569Z,1031.31
2019-02-22T08:42:02.547Z,1031.32
2019-02-22T08:43:02.534Z,1031.34
2019-02-22T08:44:02.539Z,1031.36
2019-02-22T08:45:02.545Z,1031.39
2019-02-22T08:46:02.506Z,1031.48
2019-02-22T08:47:02.494Z,1031.48
2019-02-22T08:48:02.486Z,1031.57
2019-02-22T08:49:02.477Z,1031.51
2019-02-22T08:50:02.503Z,1031.54
2019-02-22T08:51:02.461Z,1031.60
2019-02-22T08:52:02.449Z,1031.60
2019-02-22T08:53:02.448Z,1031.71
2019-02-22T08:54:02.425Z,1031.65
2019-02-22T08:55:02.405Z,1031.74
2019-02-22T08:56:02.739Z,1031.76
2019-02-22T08:57:02.404Z,1031.76
2019-02-22T08:58:02.381Z,1031.76
2019-02-22T08:59:02.374Z,1031.75
2019-02-22T09:00:02.356Z,1031.79
2019-02-22T09:01:02.369Z,1031.82
2019-02-22T09:02:02.370Z,1031.84
2019-02-22T09:03:02.327Z,1031.89
2019-02-22T09:04:02.317Z,1031.92
2019-02-22T09:05:02.307Z,1031.87
2019-02-22T09:06:02.321Z,1031.99
2019-02-22T09:07:02.282Z,1031.92
2019-02-22T09:08:02.269Z,1031.99
2019-02-22T09:09:02.259Z,1031.98
2019-02-22T09:10:02.276Z,1032.10
2019-02-22T09:11:02.295Z,1032.23
2019-02-22T09:12:02.268Z,1032.13
2019-02-22T09:13:02.224Z,1032.34
2019-02-22T09:14:02.208Z,1032.34
2019-02-22T09:15:02.194Z,1032.38
2019-02-22T09:16:02.187Z,1032.41
2019-02-22T09:17:02.204Z,1032.12
2019-02-22T09:18:02.159Z,1032.37
2019-02-22T09:19:02.148Z,1032.32
2019-02-22T09:20:02.142Z,1032.42
2019-02-22T09:21:02.131Z,1032.46
2019-02-22T09:22:02.142Z,1032.48
2019-02-22T09:23:02.112Z,1032.43
2019-02-22T09:24:02.108Z,1032.50
2019-02-22T09:25:02.099Z,1032.55
2019-02-22T09:26:02.099Z,1032.45
2019-02-22T09:27:02.062Z,1032.45
2019-02-22T09:28:02.060Z,1032.34
2019-02-22T09:29:02.051Z,1032.39
2019-02-22T09:30:02.046Z,1032.34
2019-02-22T09:31:02.066Z,1032.39
2019-02-22T09:32:02.092Z,1032.51
2019-02-22T09:33:01.999Z,1032.47
2019-02-22T09:34:02.057Z,1032.48
2019-02-22T09:35:01.987Z,1032.41
2019-02-22T09:36:01.973Z,1032.43
2019-02-22T09:37:02.013Z,1032.48
2019-02-22T09:38:01.976Z,1032.52
2019-02-22T09:39:01.941Z,1032.65
2019-02-22T09:40:01.927Z,1032.61
2019-02-22T09:41:01.922Z,1032.70
2019-02-22T09:42:01.913Z,1032.54
2019-02-22T09:43:01.945Z,1032.54
2019-02-22T09:44:01.893Z,1032.58
2019-02-22T09:45:01.885Z,1032.50
2019-02-22T09:46:01.866Z,1032.54
2019-02-22T09:47:01.854Z,1032.57
2019-02-22T09:48:01.881Z,1032.57
2019-02-22T09:49:01.900Z,1032.62
2019-02-22T09:50:01.825Z,1032.61
2019-02-22T09:51:01.813Z,1032.64
2019-02-22T09:52:01.803Z,1032.66
2019-02-22T09:53:01.828Z,1032.70
2019-02-22T09:54:01.812Z,1032.80
2019-02-22T09:55:01.779Z,1032.80
2019-02-22T09:56:01.766Z,1032.91
2019-02-22T09:57:02.057Z,1032.94
2019-02-22T09:58:01.738Z,1032.96
2019-02-22T09:59:01.761Z,1033.03
2019-02-22T10:00:01.718Z,1033.04
2019-02-22T10:01:01.708Z,1033.04
2019-02-22T10:02:01.705Z,1033.06
2019-02-22T10:03:01.688Z,1033.11
2019-02-22T10:04:01.718Z,1033.22
2019-02-22T10:05:01.672Z,1033.19
2019-02-22T10:06:01.660Z,1033.15
2019-02-22T10:07:01.650Z,1033.19
2019-02-22T10:08:01.679Z,1033.17
2019-02-22T10:09:03.972Z,1033.22
2019-02-22T10:10:01.639Z,1033.15
2019-02-22T10:11:01.599Z,1033.12
2019-02-22T10:12:01.601Z,1033.09
2019-02-22T10:13:01.579Z,1033.22
2019-02-22T10:14:06.609Z,1033.19
2019-02-22T10:15:02.619Z,1033.11
2019-02-22T10:16:01.553Z,1033.16
2019-02-22T10:17:01.550Z,1033.08
2019-02-22T10:18:01.572Z,1033.18
2019-02-22T10:19:01.520Z,1033.15
2019-02-22T10:20:02.069Z,1033.09
2019-02-22T10:21:01.539Z,1033.11
2019-02-22T10:22:01.489Z,1032.98
2019-02-22T10:23:01.475Z,1033.05
2019-02-22T10:24:01.464Z,1032.96
2019-02-22T10:25:01.455Z,1032.99
2019-02-22T10:26:01.489Z,1033.05
2019-02-22T10:27:01.445Z,1033.05
2019-02-22T10:28:01.430Z,1033.09
2019-02-22T10:29:01.420Z,1033.01
2019-02-22T10:30:01.422Z,1033.05
2019-02-22T10:31:01.439Z,1033.01
2019-02-22T10:32:01.381Z,1032.97
2019-02-22T10:33:01.374Z,1033.03
2019-02-22T10:34:01.366Z,1033.09
2019-02-22T10:35:01.357Z,1033.05
2019-02-22T10:36:01.345Z,1033.11
2019-02-22T10:37:01.372Z,1033.13
2019-02-22T10:38:01.324Z,1033.12
2019-02-22T10:39:01.346Z,1033.14
2019-02-22T10:40:01.317Z,1033.09
2019-02-22T10:41:01.296Z,1033.10
2019-02-22T10:42:01.327Z,1033.08
2019-02-22T10:43:01.264Z,1033.16
2019-02-22T10:44:01.261Z,1033.18
2019-02-22T10:45:01.259Z,1033.15
2019-02-22T10:46:01.241Z,1033.19
2019-02-22T10:47:01.267Z,1033.20
2019-02-22T10:48:01.219Z,1033.21
2019-02-22T10:49:01.209Z,1033.17
2019-02-22T10:50:01.187Z,1033.21
2019-02-22T10:51:01.179Z,1033.18
2019-02-22T10:52:01.172Z,1033.16
2019-02-22T10:53:02.466Z,1033.24
2019-02-22T10:54:01.147Z,1033.21
2019-02-22T10:55:01.174Z,1033.20
2019-02-22T10:56:01.125Z,1033.23
2019-02-22T10:57:01.120Z,1033.24
2019-02-22T10:58:01.150Z,1033.32
2019-02-22T10:59:01.163Z,1033.32
2019-02-22T11:00:01.160Z,1033.30
2019-02-22T11:01:01.078Z,1033.29
2019-02-22T11:02:01.073Z,1033.26
2019-02-22T11:03:01.054Z,1033.35
2019-02-22T11:04:01.174Z,1033.30
2019-02-22T11:05:01.026Z,1033.33
2019-02-22T11:06:01.107Z,1033.36
2019-02-22T11:07:01.114Z,1033.32
2019-02-22T11:08:00.997Z,1033.31
2019-02-22T11:09:00.987Z,1033.36
2019-02-22T11:10:01.049Z,1033.30
2019-02-22T11:11:00.969Z,1033.30
2019-02-22T11:12:01.023Z,1033.27
2019-02-22T11:13:01.031Z,1033.27
2019-02-22T11:14:00.931Z,1033.33
2019-02-22T11:15:00.950Z,1033.27
2019-02-22T11:16:00.909Z,1033.32
2019-02-22T11:17:00.898Z,1033.26
2019-02-22T11:18:00.903Z,1033.31
2019-02-22T11:19:00.891Z,1033.34
2019-02-22T11:20:00.871Z,1033.36
2019-02-22T11:21:00.888Z,1033.40
2019-02-22T11:22:00.845Z,1033.44
2019-02-22T11:23:00.834Z,1033.45
2019-02-22T11:24:00.831Z,1033.38
2019-02-22T11:25:00.823Z,1033.40
2019-02-22T11:26:00.837Z,1033.52
2019-02-22T11:27:10.279Z,1033.48
2019-02-22T11:28:00.792Z,1033.44
2019-02-22T11:29:00.776Z,1033.43
2019-02-22T11:30:00.768Z,1033.53
2019-02-22T11:31:00.789Z,1033.51
2019-02-22T11:32:00.777Z,1033.50
2019-02-22T11:33:00.727Z,1033.50
2019-02-22T11:34:00.721Z,1033.55
2019-02-22T11:35:01.772Z,1033.58
2019-02-22T11:36:00.698Z,1033.54
2019-02-22T11:37:00.732Z,1033.59
2019-02-22T11:38:00.675Z,1033.65
2019-02-22T11:39:00.676Z,1033.58
2019-02-22T11:40:00.661Z,1033.63
2019-02-22T11:41:00.650Z,1033.61
2019-02-22T11:42:00.638Z,1033.65
2019-02-22T11:43:00.645Z,1033.67
2019-02-22T11:44:00.611Z,1033.63
2019-02-22T11:45:00.597Z,1033.64
2019-02-22T11:46:00.587Z,1033.70
2019-02-22T11:47:00.582Z,1033.67
2019-02-22T11:48:08.806Z,1033.71
2019-02-22T11:49:01.561Z,1033.73
2019-02-22T11:50:00.553Z,1033.77
2019-02-22T11:51:00.537Z,1033.74
2019-02-22T11:52:00.529Z,1033.81
2019-02-22T11:53:00.548Z,1033.75
2019-02-22T11:54:00.510Z,1033.76
2019-02-22T11:55:00.496Z,1033.78
2019-02-22T11:56:00.482Z,1033.79
2019-02-22T11:57:00.471Z,1033.84
2019-02-22T11:58:00.484Z,1033.83
2019-02-22T11:59:00.482Z,1033.90
2019-02-22T12:00:00.444Z,1033.94
2019-02-22T12:01:00.483Z,1033.96
2019-02-22T12:02:00.425Z,1033.98
2019-02-22T12:03:12.166Z,1033.91
2019-02-22T12:04:01.423Z,1034.02
2019-02-22T12:05:00.403Z,1034.03